Hunting Creek, North Carolina
Current Conditions -  °F | °C
As of 9:55 PM on Thursday 27 Nov 2014 (Local Time) from KUKF Reporting Station
Overcast Overcast  
Wind Chill: 23°   Ceiling: 4100
Heat Index: 32°   Visibility: 10mi
Dew Point: 21°   Wind: 12mph
Humidity: 64%   Direction: 320°NW
Pressure: 30.32"   Gusts: 17mph
Location:  36.1997°N, 81.0764°W
Report Text: KUKF 280255Z AUTO 32010G15KT 10SM OVC041 00/M06 A3032 RMK AO2
Loading
Personal Weather Stations






























Interactive Weather Map New forecast layout! Learn more

10-Day Weather Forecast

Advertisements
Track Severe Weather on mobile